Rio Rico, AZ (85648)

4:46 PM MST on July 07, 2015 (GMT -0700)
Cerro Pelon | | Change Station
CLOSE
Current Station
Personal Weather Station
Location: Tubac, AZ
Elevation: 3488 ft
Nearby Weather Stations

Elev 3488 ft 31.60 °N, 111.07 °W | Updated 2 seconds ago

Clear
Clear
96.2 °F
Feels Like 96 °F
N
4.0
Wind Variable Wind from NE
Gusts 9.0 mph

Today
High -- | Low -- °F
--% Chance of Precip.
Yesterday
High -- | Low -- °F
Precip. -- in
5:25 AM 7:32 PM
Waning Gibbous, 60% visible
Pressure 29.76 in
Visibility 10.0 miles
Clouds Scattered Clouds 9500 ft
Heat Index 96 °F
Dew Point 59 °F
Humidity 29%
Rainfall 0.00 in
Snow Depth Not available.
UV 5 out of 12
Pollen 3.00 out of 12
Air Quality Not available.
Flu Activity Not available.
METAR KOLS 072254Z AUTO 26010G16KT 230V300 10SM SCT095 34/12 A2998 RMK AO2 LTG DSNT E SLP078 T03440117

More Conditions Fewer Conditions

Pressure 29.76 in
Visibility 10.0 miles
Clouds Scattered Clouds 9500 ft
Heat Index 96 °F
Dew Point 59 °F
Humidity 29%
Rainfall 0.00 in
Snow Depth Not available.
UV 5 out of 12
Pollen 3.00 out of 12
Air Quality Not available.
Flu Activity Not available.
METAR KOLS 072254Z AUTO 26010G16KT 230V300 10SM SCT095 34/12 A2998 RMK AO2 LTG DSNT E SLP078 T03440117

More Conditions Fewer Conditions

Nowcast | as of 4:31 PM MST on July 7, 2015

Isolated showers and thunderstorms will continue east of Tucson to the New Mexico border through 7 PM. Rainfall amounts will generally be under half an inch...with some locally higher amounts under stronger storms.

×

10-Day Weather Forecast

×

Almanac

Astronomy

Jul. 07, 2015 Rise Set
Actual Time
Civil Twilight
Nautical Twilight
Astronomical Twilight
Moon
Length of Visible Light
Length of Day
Tomorrow will be .
, % of the Moon is Illuminated

Today's Extremes

State Highs State Lows

Community

WunderPhotos

Upload Photos

1,835,961 photos uploaded!

WunderBlogs® & News

Nearby

Air Quality

  Air Quality AQ Index Pollutant
Not available.

Snow Depth

Station Depth Elevation

Earthquake Activity

City Distance Mag. Time & Date
Minimum magnitude displayed is 2.5.

Coastal Water Temperatures

Place Temperature

Stations

Nearby Weather Stations

Station Location Temp. Windchill Dew Point Humidity Wind Precip. Elev Updated Type